sensor_id;sensor_type;location;lat;lon;timestamp;pressure;altitude;pressure_sealevel;temperature;humidity
84932;BME280;75193;53.980;13.902;2024-03-29T00:00:39;99640.69;;;15.87;46.11
84932;BME280;75193;53.980;13.902;2024-03-29T00:03:05;99641.03;;;15.55;46.60
84932;BME280;75193;53.980;13.902;2024-03-29T00:05:31;99642.59;;;15.38;46.58
84932;BME280;75193;53.980;13.902;2024-03-29T00:07:57;99636.34;;;15.49;46.40
84932;BME280;75193;53.980;13.902;2024-03-29T00:10:22;99645.38;;;15.36;46.13
84932;BME280;75193;53.980;13.902;2024-03-29T00:12:48;99648.88;;;15.18;46.36
84932;BME280;75193;53.980;13.902;2024-03-29T00:15:14;99647.66;;;14.73;47.13
84932;BME280;75193;53.980;13.902;2024-03-29T00:17:39;99656.91;;;14.58;47.58
84932;BME280;75193;53.980;13.902;2024-03-29T00:20:05;99650.22;;;14.44;47.55
84932;BME280;75193;53.980;13.902;2024-03-29T00:22:31;99657.75;;;14.78;46.98
84932;BME280;75193;53.980;13.902;2024-03-29T00:24:57;99652.78;;;14.75;47.16
84932;BME280;75193;53.980;13.902;2024-03-29T00:27:22;99658.00;;;14.65;47.19
84932;BME280;75193;53.980;13.902;2024-03-29T00:29:51;99653.84;;;14.63;47.19
84932;BME280;75193;53.980;13.902;2024-03-29T00:32:19;99661.50;;;14.16;48.20
84932;BME280;75193;53.980;13.902;2024-03-29T00:34:44;99670.72;;;14.10;48.05
84932;BME280;75193;53.980;13.902;2024-03-29T00:37:10;99666.47;;;14.19;47.78
84932;BME280;75193;53.980;13.902;2024-03-29T00:39:36;99673.84;;;14.35;47.79
84932;BME280;75193;53.980;13.902;2024-03-29T00:42:01;99677.13;;;14.96;46.45
84932;BME280;75193;53.980;13.902;2024-03-29T00:44:27;99679.38;;;14.91;46.26
84932;BME280;75193;53.980;13.902;2024-03-29T00:46:52;99674.94;;;14.92;46.43
84932;BME280;75193;53.980;13.902;2024-03-29T00:49:18;99678.78;;;14.78;46.40
84932;BME280;75193;53.980;13.902;2024-03-29T00:51:43;99686.00;;;15.14;45.63
84932;BME280;75193;53.980;13.902;2024-03-29T00:54:08;99692.50;;;15.01;45.69
84932;BME280;75193;53.980;13.902;2024-03-29T00:56:34;99702.34;;;15.18;45.57
84932;BME280;75193;53.980;13.902;2024-03-29T00:58:59;99706.69;;;14.50;47.09
84932;BME280;75193;53.980;13.902;2024-03-29T01:01:24;99702.59;;;14.76;46.37
84932;BME280;75193;53.980;13.902;2024-03-29T01:03:50;99712.97;;;14.78;46.36
84932;BME280;75193;53.980;13.902;2024-03-29T01:06:17;99725.72;;;14.82;45.85
84932;BME280;75193;53.980;13.902;2024-03-29T01:08:42;99719.59;;;14.22;47.56
84932;BME280;75193;53.980;13.902;2024-03-29T01:11:08;99722.69;;;14.37;47.51
84932;BME280;75193;53.980;13.902;2024-03-29T01:13:33;99723.69;;;14.46;47.25
84932;BME280;75193;53.980;13.902;2024-03-29T01:15:59;99727.94;;;14.37;47.34
84932;BME280;75193;53.980;13.902;2024-03-29T01:18:24;99719.75;;;14.71;46.65
84932;BME280;75193;53.980;13.902;2024-03-29T01:20:49;99730.47;;;14.48;46.74
84932;BME280;75193;53.980;13.902;2024-03-29T01:23:15;99723.47;;;14.28;47.50
84932;BME280;75193;53.980;13.902;2024-03-29T01:25:40;99725.38;;;14.47;46.79
84932;BME280;75193;53.980;13.902;2024-03-29T01:28:05;99738.13;;;14.31;47.15
84932;BME280;75193;53.980;13.902;2024-03-29T01:30:31;99736.72;;;13.86;48.07
84932;BME280;75193;53.980;13.902;2024-03-29T01:32:56;99731.41;;;14.07;47.48
84932;BME280;75193;53.980;13.902;2024-03-29T01:35:22;99740.06;;;14.19;47.52
84932;BME280;75193;53.980;13.902;2024-03-29T01:37:47;99747.53;;;14.23;47.22
84932;BME280;75193;53.980;13.902;2024-03-29T01:40:13;99742.28;;;13.51;48.95
84932;BME280;75193;53.980;13.902;2024-03-29T01:42:38;99753.72;;;13.92;47.98
84932;BME280;75193;53.980;13.902;2024-03-29T01:45:04;99760.25;;;14.18;47.43
84932;BME280;75193;53.980;13.902;2024-03-29T01:47:30;99765.22;;;13.70;48.57
84932;BME280;75193;53.980;13.902;2024-03-29T01:49:55;99771.59;;;13.56;48.84
84932;BME280;75193;53.980;13.902;2024-03-29T01:52:21;99787.13;;;13.80;48.80
84932;BME280;75193;53.980;13.902;2024-03-29T01:54:48;99782.09;;;13.56;49.24
84932;BME280;75193;53.980;13.902;2024-03-29T01:57:16;99795.88;;;13.49;49.86
84932;BME280;75193;53.980;13.902;2024-03-29T01:59:42;99789.16;;;14.18;48.61
84932;BME280;75193;53.980;13.902;2024-03-29T02:02:10;99799.13;;;14.24;48.65
84932;BME280;75193;53.980;13.902;2024-03-29T02:04:36;99792.75;;;14.48;48.14
84932;BME280;75193;53.980;13.902;2024-03-29T02:07:03;99805.88;;;14.48;48.28
84932;BME280;75193;53.980;13.902;2024-03-29T02:09:29;99793.28;;;14.72;47.88
84932;BME280;75193;53.980;13.902;2024-03-29T02:11:55;99787.72;;;14.75;47.78
84932;BME280;75193;53.980;13.902;2024-03-29T02:14:20;99789.88;;;14.30;48.06
84932;BME280;75193;53.980;13.902;2024-03-29T02:16:46;99793.59;;;14.28;47.96
84932;BME280;75193;53.980;13.902;2024-03-29T02:19:11;99792.06;;;14.46;47.45
84932;BME280;75193;53.980;13.902;2024-03-29T02:21:44;99787.38;;;14.29;47.69
84932;BME280;75193;53.980;13.902;2024-03-29T02:24:12;99790.63;;;14.42;47.62
84932;BME280;75193;53.980;13.902;2024-03-29T02:26:40;99786.09;;;14.84;46.99
84932;BME280;75193;53.980;13.902;2024-03-29T02:29:07;99794.38;;;14.79;46.94
84932;BME280;75193;53.980;13.902;2024-03-29T02:31:33;99798.81;;;14.69;46.65
84932;BME280;75193;53.980;13.902;2024-03-29T02:33:59;99801.97;;;14.42;46.94
84932;BME280;75193;53.980;13.902;2024-03-29T02:36:24;99800.09;;;14.23;47.47
84932;BME280;75193;53.980;13.902;2024-03-29T02:38:49;99792.72;;;14.78;46.29
84932;BME280;75193;53.980;13.902;2024-03-29T02:41:15;99776.81;;;14.80;45.95
84932;BME280;75193;53.980;13.902;2024-03-29T02:43:40;99786.34;;;14.71;46.03
84932;BME280;75193;53.980;13.902;2024-03-29T02:46:06;99772.88;;;14.55;46.09
84932;BME280;75193;53.980;13.902;2024-03-29T02:48:31;99781.47;;;14.36;46.51
84932;BME280;75193;53.980;13.902;2024-03-29T02:50:56;99770.50;;;14.31;46.56
84932;BME280;75193;53.980;13.902;2024-03-29T02:53:22;99776.97;;;14.17;47.07
84932;BME280;75193;53.980;13.902;2024-03-29T02:55:47;99782.19;;;13.87;47.83
84932;BME280;75193;53.980;13.902;2024-03-29T02:58:13;99782.72;;;14.11;46.92
84932;BME280;75193;53.980;13.902;2024-03-29T03:00:38;99784.22;;;14.04;47.42
84932;BME280;75193;53.980;13.902;2024-03-29T03:03:03;99792.13;;;13.62;48.39
84932;BME280;75193;53.980;13.902;2024-03-29T03:05:29;99787.44;;;13.66;48.53
84932;BME280;75193;53.980;13.902;2024-03-29T03:07:55;99781.66;;;13.93;47.97
84932;BME280;75193;53.980;13.902;2024-03-29T03:10:47;99772.19;;;13.81;48.34
84932;BME280;75193;53.980;13.902;2024-03-29T03:13:25;99779.25;;;13.59;49.19
84932;BME280;75193;53.980;13.902;2024-03-29T03:15:51;99779.81;;;13.63;48.89
84932;BME280;75193;53.980;13.902;2024-03-29T03:18:16;99786.28;;;13.59;49.20
84932;BME280;75193;53.980;13.902;2024-03-29T03:20:41;99776.81;;;13.68;49.00
84932;BME280;75193;53.980;13.902;2024-03-29T03:23:07;99774.91;;;13.38;50.10
84932;BME280;75193;53.980;13.902;2024-03-29T03:25:32;99786.53;;;13.56;49.45
84932;BME280;75193;53.980;13.902;2024-03-29T03:27:58;99798.66;;;13.68;49.31
84932;BME280;75193;53.980;13.902;2024-03-29T03:30:23;99794.88;;;13.82;49.09
84932;BME280;75193;53.980;13.902;2024-03-29T03:32:49;99804.72;;;13.69;49.89
84932;BME280;75193;53.980;13.902;2024-03-29T03:35:14;99801.78;;;13.62;50.01
84932;BME280;75193;53.980;13.902;2024-03-29T03:37:40;99808.56;;;13.64;49.52
84932;BME280;75193;53.980;13.902;2024-03-29T03:40:05;99811.22;;;13.32;50.94
84932;BME280;75193;53.980;13.902;2024-03-29T03:42:32;99810.69;;;13.71;49.63
84932;BME280;75193;53.980;13.902;2024-03-29T03:44:57;99817.56;;;13.51;50.00
84932;BME280;75193;53.980;13.902;2024-03-29T03:47:23;99819.38;;;13.71;49.70
84932;BME280;75193;53.980;13.902;2024-03-29T03:49:48;99817.66;;;13.28;50.73
84932;BME280;75193;53.980;13.902;2024-03-29T03:52:13;99807.00;;;13.41;50.82
84932;BME280;75193;53.980;13.902;2024-03-29T03:54:39;99816.94;;;13.15;51.48
84932;BME280;75193;53.980;13.902;2024-03-29T03:57:04;99808.47;;;13.55;50.66
84932;BME280;75193;53.980;13.902;2024-03-29T03:59:30;99805.28;;;13.19;51.33
84932;BME280;75193;53.980;13.902;2024-03-29T04:01:56;99818.38;;;13.30;50.86
84932;BME280;75193;53.980;13.902;2024-03-29T04:04:21;99820.66;;;13.56;50.26
84932;BME280;75193;53.980;13.902;2024-03-29T04:06:47;99820.72;;;13.45;50.22
84932;BME280;75193;53.980;13.902;2024-03-29T04:09:15;99827.41;;;13.38;50.98
84932;BME280;75193;53.980;13.902;2024-03-29T04:11:42;99826.72;;;13.13;51.01
84932;BME280;75193;53.980;13.902;2024-03-29T04:14:07;99834.03;;;13.21;51.18
84932;BME280;75193;53.980;13.902;2024-03-29T04:16:32;99847.59;;;13.15;51.33
84932;BME280;75193;53.980;13.902;2024-03-29T04:18:58;99840.56;;;13.26;51.17
84932;BME280;75193;53.980;13.902;2024-03-29T04:21:23;99836.41;;;13.56;49.85
84932;BME280;75193;53.980;13.902;2024-03-29T04:23:49;99829.34;;;13.13;50.94
84932;BME280;75193;53.980;13.902;2024-03-29T04:26:14;99832.28;;;12.88;51.93
84932;BME280;75193;53.980;13.902;2024-03-29T04:28:40;99837.72;;;13.07;51.33
84932;BME280;75193;53.980;13.902;2024-03-29T04:31:05;99827.09;;;13.20;50.71
84932;BME280;75193;53.980;13.902;2024-03-29T04:33:30;99832.84;;;13.25;50.84
84932;BME280;75193;53.980;13.902;2024-03-29T04:35:58;99821.00;;;13.30;50.21
84932;BME280;75193;53.980;13.902;2024-03-29T04:38:26;99820.38;;;13.38;50.12
84932;BME280;75193;53.980;13.902;2024-03-29T04:40:53;99812.97;;;13.43;49.74
84932;BME280;75193;53.980;13.902;2024-03-29T04:43:21;99813.41;;;13.05;51.26
84932;BME280;75193;53.980;13.902;2024-03-29T04:45:47;99818.16;;;13.22;50.74
84932;BME280;75193;53.980;13.902;2024-03-29T04:48:13;99817.78;;;13.27;50.12
84932;BME280;75193;53.980;13.902;2024-03-29T04:50:39;99829.25;;;13.26;50.54
84932;BME280;75193;53.980;13.902;2024-03-29T04:53:04;99833.84;;;12.68;51.84
84932;BME280;75193;53.980;13.902;2024-03-29T04:55:30;99828.06;;;13.08;50.85
84932;BME280;75193;53.980;13.902;2024-03-29T04:57:56;99837.38;;;13.76;49.70
84932;BME280;75193;53.980;13.902;2024-03-29T05:00:21;99842.44;;;14.30;48.28
84932;BME280;75193;53.980;13.902;2024-03-29T05:02:47;99838.25;;;13.76;49.36
84932;BME280;75193;53.980;13.902;2024-03-29T05:05:12;99833.63;;;14.10;48.99
84932;BME280;75193;53.980;13.902;2024-03-29T05:07:37;99837.41;;;14.17;48.84
84932;BME280;75193;53.980;13.902;2024-03-29T05:10:03;99840.34;;;14.24;49.09
84932;BME280;75193;53.980;13.902;2024-03-29T05:12:32;99839.63;;;14.22;48.51
84932;BME280;75193;53.980;13.902;2024-03-29T05:14:57;99847.13;;;14.47;47.77
84932;BME280;75193;53.980;13.902;2024-03-29T05:17:23;99848.09;;;14.46;48.11
84932;BME280;75193;53.980;13.902;2024-03-29T05:19:52;99848.13;;;16.04;45.62
84932;BME280;75193;53.980;13.902;2024-03-29T05:22:17;99846.44;;;16.97;43.32
84932;BME280;75193;53.980;13.902;2024-03-29T05:24:42;99843.94;;;17.76;41.26
84932;BME280;75193;53.980;13.902;2024-03-29T05:27:08;99845.75;;;18.19;40.02
84932;BME280;75193;53.980;13.902;2024-03-29T05:29:33;99835.63;;;19.00;39.73
84932;BME280;75193;53.980;13.902;2024-03-29T05:31:58;99838.25;;;19.59;38.41
84932;BME280;75193;53.980;13.902;2024-03-29T05:34:24;99821.69;;;19.57;38.94
84932;BME280;75193;53.980;13.902;2024-03-29T05:36:49;99822.59;;;20.37;36.94
84932;BME280;75193;53.980;13.902;2024-03-29T05:39:15;99821.38;;;21.03;36.88
84932;BME280;75193;53.980;13.902;2024-03-29T05:41:41;99830.19;;;20.96;35.87
84932;BME280;75193;53.980;13.902;2024-03-29T05:44:06;99836.69;;;21.78;35.46
84932;BME280;75193;53.980;13.902;2024-03-29T05:46:31;99841.66;;;22.19;33.77
84932;BME280;75193;53.980;13.902;2024-03-29T05:48:57;99844.69;;;21.93;33.95
84932;BME280;75193;53.980;13.902;2024-03-29T05:51:22;99844.72;;;22.75;34.31
84932;BME280;75193;53.980;13.902;2024-03-29T05:53:48;99846.66;;;21.53;35.40
84932;BME280;75193;53.980;13.902;2024-03-29T05:56:13;99850.31;;;20.43;37.40
84932;BME280;75193;53.980;13.902;2024-03-29T05:58:38;99857.16;;;20.13;35.88
84932;BME280;75193;53.980;13.902;2024-03-29T06:01:04;99846.22;;;19.83;37.55
84932;BME280;75193;53.980;13.902;2024-03-29T06:03:29;99837.25;;;19.84;36.41
84932;BME280;75193;53.980;13.902;2024-03-29T06:05:55;99833.16;;;20.62;36.52
84932;BME280;75193;53.980;13.902;2024-03-29T06:08:20;99836.13;;;21.06;34.87
84932;BME280;75193;53.980;13.902;2024-03-29T06:10:46;99842.72;;;20.79;36.02
84932;BME280;75193;53.980;13.902;2024-03-29T06:13:12;99848.78;;;20.56;36.51
84932;BME280;75193;53.980;13.902;2024-03-29T06:15:55;99843.75;;;19.74;37.71
84932;BME280;75193;53.980;13.902;2024-03-29T06:18:39;99852.34;;;19.92;37.42
84932;BME280;75193;53.980;13.902;2024-03-29T06:21:04;99852.91;;;19.29;37.51
84932;BME280;75193;53.980;13.902;2024-03-29T06:23:30;99870.47;;;18.80;39.15
84932;BME280;75193;53.980;13.902;2024-03-29T06:25:55;99873.66;;;18.39;39.39
84932;BME280;75193;53.980;13.902;2024-03-29T06:28:21;99876.31;;;18.13;40.22
84932;BME280;75193;53.980;13.902;2024-03-29T06:30:46;99875.13;;;18.08;39.90
84932;BME280;75193;53.980;13.902;2024-03-29T06:33:11;99888.16;;;17.56;40.90
84932;BME280;75193;53.980;13.902;2024-03-29T06:35:37;99896.50;;;17.97;40.44
84932;BME280;75193;53.980;13.902;2024-03-29T06:38:02;99910.81;;;17.59;40.79
84932;BME280;75193;53.980;13.902;2024-03-29T06:40:28;99902.00;;;17.50;41.38
84932;BME280;75193;53.980;13.902;2024-03-29T06:42:53;99917.72;;;16.87;42.33
84932;BME280;75193;53.980;13.902;2024-03-29T06:45:21;99912.56;;;17.22;41.89
84932;BME280;75193;53.980;13.902;2024-03-29T06:47:47;99926.81;;;17.57;41.37
84932;BME280;75193;53.980;13.902;2024-03-29T06:50:12;99928.88;;;17.08;41.70
84932;BME280;75193;53.980;13.902;2024-03-29T06:52:38;99924.94;;;17.22;41.78
84932;BME280;75193;53.980;13.902;2024-03-29T06:55:03;99920.38;;;17.42;41.66
84932;BME280;75193;53.980;13.902;2024-03-29T06:57:28;99922.38;;;17.12;42.01
84932;BME280;75193;53.980;13.902;2024-03-29T06:59:57;99913.25;;;17.24;41.81
84932;BME280;75193;53.980;13.902;2024-03-29T07:02:22;99908.88;;;17.15;41.62
84932;BME280;75193;53.980;13.902;2024-03-29T07:04:47;99908.50;;;17.28;41.76
84932;BME280;75193;53.980;13.902;2024-03-29T07:07:13;99912.59;;;16.85;42.60
84932;BME280;75193;53.980;13.902;2024-03-29T07:09:38;99909.19;;;17.03;42.08
84932;BME280;75193;53.980;13.902;2024-03-29T07:12:04;99910.31;;;17.27;41.75
84932;BME280;75193;53.980;13.902;2024-03-29T07:14:29;99914.81;;;17.17;42.17
84932;BME280;75193;53.980;13.902;2024-03-29T07:16:56;99918.78;;;17.04;42.18
84932;BME280;75193;53.980;13.902;2024-03-29T07:19:22;99922.19;;;17.87;41.25
84932;BME280;75193;53.980;13.902;2024-03-29T07:21:47;99917.91;;;17.58;41.58
84932;BME280;75193;53.980;13.902;2024-03-29T07:24:13;99921.16;;;17.24;41.45
84932;BME280;75193;53.980;13.902;2024-03-29T07:26:39;99915.34;;;17.21;42.15
84932;BME280;75193;53.980;13.902;2024-03-29T07:29:04;99927.97;;;17.27;42.01
84932;BME280;75193;53.980;13.902;2024-03-29T07:31:31;99922.06;;;17.61;41.75
84932;BME280;75193;53.980;13.902;2024-03-29T07:33:56;99939.28;;;16.82;42.24
84932;BME280;75193;53.980;13.902;2024-03-29T07:36:22;99943.88;;;17.17;42.00
84932;BME280;75193;53.980;13.902;2024-03-29T07:38:50;99945.81;;;17.15;41.55
84932;BME280;75193;53.980;13.902;2024-03-29T07:41:15;99939.47;;;17.36;41.46
84932;BME280;75193;53.980;13.902;2024-03-29T07:43:50;99949.00;;;17.74;40.40
84932;BME280;75193;53.980;13.902;2024-03-29T07:46:16;99953.47;;;17.91;40.72
84932;BME280;75193;53.980;13.902;2024-03-29T07:48:41;99960.63;;;17.99;40.54
84932;BME280;75193;53.980;13.902;2024-03-29T07:51:06;99959.72;;;18.08;40.11
84932;BME280;75193;53.980;13.902;2024-03-29T07:53:32;99960.41;;;18.10;40.42
84932;BME280;75193;53.980;13.902;2024-03-29T07:55:57;99962.53;;;18.06;40.76
84932;BME280;75193;53.980;13.902;2024-03-29T07:58:22;99961.03;;;17.86;40.63
84932;BME280;75193;53.980;13.902;2024-03-29T08:00:49;99950.47;;;18.48;39.69
84932;BME280;75193;53.980;13.902;2024-03-29T08:03:15;99974.31;;;18.56;39.50
84932;BME280;75193;53.980;13.902;2024-03-29T08:05:40;99963.72;;;18.73;39.15
84932;BME280;75193;53.980;13.902;2024-03-29T08:08:05;99962.75;;;18.57;39.52
84932;BME280;75193;53.980;13.902;2024-03-29T08:10:31;99969.69;;;18.58;39.37
84932;BME280;75193;53.980;13.902;2024-03-29T08:12:56;99976.84;;;18.39;39.81
84932;BME280;75193;53.980;13.902;2024-03-29T08:15:23;99966.38;;;18.73;39.62
84932;BME280;75193;53.980;13.902;2024-03-29T08:17:50;99962.94;;;18.37;39.39
84932;BME280;75193;53.980;13.902;2024-03-29T08:20:15;99970.31;;;18.26;39.56
84932;BME280;75193;53.980;13.902;2024-03-29T08:22:41;99965.91;;;18.34;39.22
84932;BME280;75193;53.980;13.902;2024-03-29T08:25:06;99978.66;;;18.39;39.46
84932;BME280;75193;53.980;13.902;2024-03-29T08:27:34;99974.34;;;18.38;39.09
84932;BME280;75193;53.980;13.902;2024-03-29T08:29:59;99983.63;;;18.60;38.51
84932;BME280;75193;53.980;13.902;2024-03-29T08:32:25;99975.53;;;18.79;38.64
84932;BME280;75193;53.980;13.902;2024-03-29T08:34:50;99971.34;;;18.76;38.24
84932;BME280;75193;53.980;13.902;2024-03-29T08:37:17;99959.44;;;19.49;36.79
84932;BME280;75193;53.980;13.902;2024-03-29T08:39:42;99957.75;;;19.82;36.55
84932;BME280;75193;53.980;13.902;2024-03-29T08:42:08;99958.38;;;19.59;37.29
84932;BME280;75193;53.980;13.902;2024-03-29T08:44:36;99943.81;;;19.72;37.35
84932;BME280;75193;53.980;13.902;2024-03-29T08:47:01;99965.75;;;20.22;35.80
84932;BME280;75193;53.980;13.902;2024-03-29T08:49:28;99966.75;;;20.30;36.20
84932;BME280;75193;53.980;13.902;2024-03-29T08:51:54;99962.25;;;20.63;35.75
84932;BME280;75193;53.980;13.902;2024-03-29T08:54:19;99971.41;;;19.53;35.94
84932;BME280;75193;53.980;13.902;2024-03-29T08:56:45;99982.84;;;20.36;35.53
84932;BME280;75193;53.980;13.902;2024-03-29T08:59:10;99991.28;;;20.40;35.70
84932;BME280;75193;53.980;13.902;2024-03-29T09:01:40;100001.25;;;20.62;35.41
84932;BME280;75193;53.980;13.902;2024-03-29T09:04:06;100011.56;;;20.41;35.42
84932;BME280;75193;53.980;13.902;2024-03-29T09:06:35;100005.06;;;20.11;35.85
84932;BME280;75193;53.980;13.902;2024-03-29T09:09:00;100015.41;;;19.72;35.20
84932;BME280;75193;53.980;13.902;2024-03-29T09:11:26;100018.78;;;19.98;35.44
84932;BME280;75193;53.980;13.902;2024-03-29T09:13:51;100013.34;;;20.40;34.96
84932;BME280;75193;53.980;13.902;2024-03-29T09:16:19;100012.31;;;19.92;35.20
84932;BME280;75193;53.980;13.902;2024-03-29T09:18:44;100031.09;;;20.15;35.48
84932;BME280;75193;53.980;13.902;2024-03-29T09:21:11;100027.69;;;19.81;35.81
84932;BME280;75193;53.980;13.902;2024-03-29T09:23:36;100033.81;;;19.47;35.89
84932;BME280;75193;53.980;13.902;2024-03-29T09:26:04;100024.03;;;19.82;35.67
84932;BME280;75193;53.980;13.902;2024-03-29T09:28:29;100026.78;;;20.14;35.49
84932;BME280;75193;53.980;13.902;2024-03-29T09:30:58;100027.50;;;19.74;35.90
84932;BME280;75193;53.980;13.902;2024-03-29T09:33:24;100021.31;;;19.57;36.05
84932;BME280;75193;53.980;13.902;2024-03-29T09:35:49;100026.84;;;19.80;36.22
84932;BME280;75193;53.980;13.902;2024-03-29T09:38:15;100022.72;;;19.86;35.55
84932;BME280;75193;53.980;13.902;2024-03-29T09:40:41;100032.09;;;20.31;34.71
84932;BME280;75193;53.980;13.902;2024-03-29T09:43:09;100034.44;;;20.42;35.31
84932;BME280;75193;53.980;13.902;2024-03-29T09:45:36;100024.47;;;20.27;34.30
84932;BME280;75193;53.980;13.902;2024-03-29T09:48:07;100019.84;;;20.54;34.30
84932;BME280;75193;53.980;13.902;2024-03-29T09:50:34;100023.69;;;20.68;34.19
84932;BME280;75193;53.980;13.902;2024-03-29T09:53:06;100019.81;;;20.38;34.29
84932;BME280;75193;53.980;13.902;2024-03-29T09:55:33;100020.53;;;20.56;34.19
84932;BME280;75193;53.980;13.902;2024-03-29T09:58:00;100006.88;;;20.92;33.44
84932;BME280;75193;53.980;13.902;2024-03-29T10:00:26;99995.78;;;20.31;34.25
84932;BME280;75193;53.980;13.902;2024-03-29T10:02:53;99999.53;;;21.10;33.16
84932;BME280;75193;53.980;13.902;2024-03-29T10:05:21;99998.00;;;21.24;33.32
84932;BME280;75193;53.980;13.902;2024-03-29T10:07:47;100004.97;;;21.33;32.93
84932;BME280;75193;53.980;13.902;2024-03-29T10:10:12;99998.63;;;21.73;32.78
84932;BME280;75193;53.980;13.902;2024-03-29T10:12:38;99991.53;;;21.26;32.72
84932;BME280;75193;53.980;13.902;2024-03-29T10:15:04;99997.50;;;21.28;32.83
84932;BME280;75193;53.980;13.902;2024-03-29T10:17:47;99992.63;;;20.68;33.53
84932;BME280;75193;53.980;13.902;2024-03-29T10:20:17;99988.94;;;20.94;33.65
84932;BME280;75193;53.980;13.902;2024-03-29T10:22:43;99997.00;;;21.16;33.59
84932;BME280;75193;53.980;13.902;2024-03-29T10:25:10;99985.16;;;20.31;34.05
84932;BME280;75193;53.980;13.902;2024-03-29T10:27:35;99997.44;;;21.44;33.62
84932;BME280;75193;53.980;13.902;2024-03-29T10:30:01;99988.53;;;21.21;34.17
84932;BME280;75193;53.980;13.902;2024-03-29T10:32:26;99992.84;;;21.22;33.93
84932;BME280;75193;53.980;13.902;2024-03-29T10:34:51;99969.88;;;21.99;32.26
84932;BME280;75193;53.980;13.902;2024-03-29T10:37:19;99979.91;;;21.89;32.86
84932;BME280;75193;53.980;13.902;2024-03-29T10:39:52;99967.91;;;21.93;32.23
84932;BME280;75193;53.980;13.902;2024-03-29T10:42:20;99975.28;;;22.14;32.47
84932;BME280;75193;53.980;13.902;2024-03-29T10:44:48;99977.63;;;22.09;32.33
84932;BME280;75193;53.980;13.902;2024-03-29T10:47:18;99972.34;;;22.32;31.93
84932;BME280;75193;53.980;13.902;2024-03-29T10:49:44;99982.13;;;22.09;32.25
84932;BME280;75193;53.980;13.902;2024-03-29T10:52:13;99963.88;;;22.05;32.57
84932;BME280;75193;53.980;13.902;2024-03-29T10:54:44;99957.34;;;22.08;32.39
84932;BME280;75193;53.980;13.902;2024-03-29T10:57:24;99953.59;;;21.71;32.52
84932;BME280;75193;53.980;13.902;2024-03-29T11:00:10;99954.84;;;22.15;31.98
84932;BME280;75193;53.980;13.902;2024-03-29T11:02:46;99947.06;;;22.05;32.66
84932;BME280;75193;53.980;13.902;2024-03-29T11:05:14;99937.97;;;23.34;31.26
84932;BME280;75193;53.980;13.902;2024-03-29T11:07:42;99926.97;;;23.07;31.29
84932;BME280;75193;53.980;13.902;2024-03-29T11:10:15;99923.50;;;23.79;30.46
84932;BME280;75193;53.980;13.902;2024-03-29T11:12:57;99929.56;;;24.09;30.35
84932;BME280;75193;53.980;13.902;2024-03-29T11:15:31;99912.31;;;24.11;29.83
84932;BME280;75193;53.980;13.902;2024-03-29T11:17:57;99904.69;;;24.08;29.68
84932;BME280;75193;53.980;13.902;2024-03-29T11:20:27;99892.81;;;23.90;30.20
84932;BME280;75193;53.980;13.902;2024-03-29T11:23:10;99880.59;;;24.23;29.69
84932;BME280;75193;53.980;13.902;2024-03-29T11:25:46;99877.78;;;24.31;29.94
84932;BME280;75193;53.980;13.902;2024-03-29T11:28:15;99871.69;;;24.16;30.03
84932;BME280;75193;53.980;13.902;2024-03-29T11:30:45;99875.81;;;24.40;30.05
84932;BME280;75193;53.980;13.902;2024-03-29T11:33:27;99871.41;;;24.95;29.26
84932;BME280;75193;53.980;13.902;2024-03-29T11:35:54;99869.22;;;24.36;30.28
84932;BME280;75193;53.980;13.902;2024-03-29T11:38:19;99865.56;;;23.94;30.41
84932;BME280;75193;53.980;13.902;2024-03-29T11:41:00;99864.81;;;23.58;30.58
84932;BME280;75193;53.980;13.902;2024-03-29T11:43:26;99878.34;;;24.27;30.11
84932;BME280;75193;53.980;13.902;2024-03-29T11:45:54;99861.53;;;24.95;29.47
84932;BME280;75193;53.980;13.902;2024-03-29T11:48:23;99858.63;;;24.28;30.08
84932;BME280;75193;53.980;13.902;2024-03-29T11:50:51;99863.63;;;24.65;29.45
84932;BME280;75193;53.980;13.902;2024-03-29T11:53:17;99866.25;;;24.03;29.89
84932;BME280;75193;53.980;13.902;2024-03-29T11:55:43;99872.84;;;24.56;29.15
84932;BME280;75193;53.980;13.902;2024-03-29T11:58:08;99875.34;;;23.87;29.70
84932;BME280;75193;53.980;13.902;2024-03-29T12:00:33;99881.66;;;24.01;29.21
84932;BME280;75193;53.980;13.902;2024-03-29T12:02:59;99876.31;;;24.01;29.46
84932;BME280;75193;53.980;13.902;2024-03-29T12:05:24;99860.16;;;22.79;29.70
84932;BME280;75193;53.980;13.902;2024-03-29T12:07:50;99867.97;;;22.51;30.32
84932;BME280;75193;53.980;13.902;2024-03-29T12:10:17;99877.44;;;22.69;30.16
84932;BME280;75193;53.980;13.902;2024-03-29T12:12:42;99872.25;;;22.67;30.08
84932;BME280;75193;53.980;13.902;2024-03-29T12:15:09;99876.69;;;22.60;30.25
84932;BME280;75193;53.980;13.902;2024-03-29T12:17:34;99875.94;;;22.81;30.26
84932;BME280;75193;53.980;13.902;2024-03-29T12:20:00;99884.72;;;22.89;30.17
84932;BME280;75193;53.980;13.902;2024-03-29T12:22:33;99875.75;;;22.67;30.57
84932;BME280;75193;53.980;13.902;2024-03-29T12:24:58;99866.25;;;22.88;30.18
84932;BME280;75193;53.980;13.902;2024-03-29T12:27:24;99866.47;;;22.78;30.36
84932;BME280;75193;53.980;13.902;2024-03-29T12:29:50;99861.59;;;22.23;30.99
84932;BME280;75193;53.980;13.902;2024-03-29T12:32:19;99856.38;;;22.74;30.67
84932;BME280;75193;53.980;13.902;2024-03-29T12:34:48;99865.28;;;22.36;30.96
84932;BME280;75193;53.980;13.902;2024-03-29T12:37:13;99861.94;;;22.20;31.06
84932;BME280;75193;53.980;13.902;2024-03-29T12:39:41;99862.66;;;21.91;31.75
84932;BME280;75193;53.980;13.902;2024-03-29T12:42:07;99857.06;;;21.86;31.49
84932;BME280;75193;53.980;13.902;2024-03-29T12:44:32;99851.75;;;22.23;31.13
84932;BME280;75193;53.980;13.902;2024-03-29T12:47:00;99863.78;;;22.19;31.23